createdAt,value
2023-05-05T00:01:37.865Z,12.64
2023-05-05T00:04:05.269Z,12.63
2023-05-05T00:06:32.560Z,12.66
2023-05-05T00:08:59.853Z,12.50
2023-05-05T00:11:27.112Z,12.32
2023-05-05T00:13:54.394Z,12.25
2023-05-05T00:16:23.298Z,12.33
2023-05-05T00:18:50.897Z,12.36
2023-05-05T00:21:18.157Z,12.50
2023-05-05T00:23:45.497Z,12.47
2023-05-05T00:26:13.098Z,12.26
2023-05-05T00:28:40.554Z,12.12
2023-05-05T00:31:08.567Z,12.14
2023-05-05T00:33:35.935Z,12.06
2023-05-05T00:36:03.314Z,11.79
2023-05-05T00:38:30.649Z,11.64
2023-05-05T00:40:57.864Z,11.73
2023-05-05T00:43:27.640Z,12.02
2023-05-05T00:46:12.506Z,12.16
2023-05-05T00:48:40.023Z,11.88
2023-05-05T00:51:09.418Z,11.65
2023-05-05T00:53:39.111Z,11.57
2023-05-05T00:56:06.791Z,11.51
2023-05-05T00:58:34.049Z,11.54
2023-05-05T01:01:01.706Z,11.36
2023-05-05T01:03:29.811Z,11.27
2023-05-05T01:06:08.267Z,11.22
2023-05-05T01:08:54.113Z,11.13
2023-05-05T01:11:27.255Z,11.23
2023-05-05T01:14:09.910Z,11.13
2023-05-05T01:16:37.471Z,11.24
2023-05-05T01:19:26.543Z,10.93
2023-05-05T01:22:00.712Z,10.85
2023-05-05T01:24:56.625Z,10.82
2023-05-05T01:27:34.503Z,10.98
2023-05-05T01:30:38.726Z,10.98
2023-05-05T01:33:08.524Z,10.92
2023-05-05T01:35:44.274Z,10.88
2023-05-05T01:38:19.314Z,11.16
2023-05-05T01:41:00.906Z,11.13
2023-05-05T01:43:28.914Z,11.17
2023-05-05T01:45:56.127Z,10.89
2023-05-05T01:48:23.472Z,10.73
2023-05-05T01:50:50.691Z,10.79
2023-05-05T01:53:17.957Z,10.80
2023-05-05T01:55:45.216Z,10.98
2023-05-05T01:58:12.517Z,10.92
2023-05-05T02:00:39.727Z,10.68
2023-05-05T02:03:08.024Z,10.51
2023-05-05T02:05:35.833Z,10.48
2023-05-05T02:08:03.209Z,10.55
2023-05-05T02:10:30.528Z,10.58
2023-05-05T02:12:59.251Z,10.54
2023-05-05T02:15:26.523Z,10.52
2023-05-05T02:17:54.008Z,10.55
2023-05-05T02:20:22.190Z,10.51
2023-05-05T02:22:49.524Z,10.31
2023-05-05T02:25:18.071Z,10.37
2023-05-05T02:27:46.489Z,10.30
2023-05-05T02:30:14.880Z,10.28
2023-05-05T02:32:46.298Z,9.93
2023-05-05T02:35:16.022Z,9.78
2023-05-05T02:37:48.285Z,9.63
2023-05-05T02:40:18.050Z,9.68
2023-05-05T02:42:46.699Z,9.73
2023-05-05T02:45:17.800Z,9.79
2023-05-05T02:47:48.413Z,9.80
2023-05-05T02:50:16.032Z,9.76
2023-05-05T02:52:51.816Z,9.78
2023-05-05T02:55:21.704Z,9.85
2023-05-05T02:58:19.018Z,9.94
2023-05-05T03:01:25.405Z,9.91
2023-05-05T03:04:07.948Z,10.07
2023-05-05T03:06:43.776Z,10.06
2023-05-05T03:09:21.302Z,9.93
2023-05-05T03:12:02.074Z,9.78
2023-05-05T03:14:33.277Z,9.73
2023-05-05T03:17:01.070Z,9.73
2023-05-05T03:19:28.380Z,9.87
2023-05-05T03:22:00.121Z,10.06
2023-05-05T03:24:28.645Z,10.13
2023-05-05T03:27:04.450Z,10.16
2023-05-05T03:29:36.386Z,10.11
2023-05-05T03:32:06.085Z,10.07
2023-05-05T03:34:35.933Z,10.13
2023-05-05T03:37:03.830Z,10.01
2023-05-05T03:39:31.280Z,9.90
2023-05-05T03:41:59.255Z,9.93
2023-05-05T03:44:30.649Z,9.99
2023-05-05T03:46:58.026Z,10.03
2023-05-05T03:49:26.107Z,9.87
2023-05-05T03:51:53.775Z,9.68
2023-05-05T03:54:21.034Z,9.72
2023-05-05T03:56:48.364Z,9.66
2023-05-05T03:59:16.032Z,9.65
2023-05-05T04:01:45.172Z,9.62
2023-05-05T04:04:12.739Z,9.70
2023-05-05T04:06:40.053Z,9.66
2023-05-05T04:09:08.120Z,9.78
2023-05-05T04:11:36.285Z,9.90
2023-05-05T04:14:03.823Z,9.97
2023-05-05T04:16:31.337Z,10.10
2023-05-05T04:18:59.634Z,10.22
2023-05-05T04:21:27.655Z,10.33
2023-05-05T04:23:55.733Z,10.40
2023-05-05T04:26:23.311Z,10.57
2023-05-05T04:28:51.270Z,10.37
2023-05-05T04:31:19.342Z,10.28
2023-05-05T04:33:47.212Z,10.27
2023-05-05T04:36:15.070Z,10.52
2023-05-05T04:38:42.454Z,10.49
2023-05-05T04:41:10.120Z,10.38
2023-05-05T04:43:39.069Z,10.31
2023-05-05T04:46:06.547Z,10.38
2023-05-05T04:48:37.970Z,10.48
2023-05-05T04:51:06.331Z,10.36
2023-05-05T04:53:33.777Z,10.51
2023-05-05T04:56:01.708Z,10.38
2023-05-05T04:58:29.291Z,10.27
2023-05-05T05:00:56.840Z,10.49
2023-05-05T05:03:24.094Z,10.62
2023-05-05T05:05:52.487Z,10.55
2023-05-05T05:08:20.361Z,10.62
2023-05-05T05:10:47.860Z,10.71
2023-05-05T05:13:15.417Z,10.82
2023-05-05T05:15:44.174Z,11.00
2023-05-05T05:18:12.203Z,11.29
2023-05-05T05:20:40.140Z,11.47
2023-05-05T05:23:07.938Z,11.43
2023-05-05T05:25:39.697Z,11.46
2023-05-05T05:28:10.691Z,11.65
2023-05-05T05:30:44.263Z,11.74
2023-05-05T05:33:12.454Z,11.85
2023-05-05T05:35:40.773Z,11.95
2023-05-05T05:38:09.911Z,12.15
2023-05-05T05:40:37.577Z,12.18
2023-05-05T05:43:09.176Z,12.15
2023-05-05T05:45:37.941Z,12.47
2023-05-05T05:48:07.299Z,12.64
2023-05-05T05:50:36.006Z,12.63
2023-05-05T05:53:03.970Z,12.67
2023-05-05T05:55:31.757Z,12.87
2023-05-05T05:57:59.669Z,12.97
2023-05-05T06:00:27.539Z,13.04
2023-05-05T06:03:02.397Z,13.18
2023-05-05T06:05:33.230Z,13.45
2023-05-05T06:08:01.123Z,13.65
2023-05-05T06:10:30.838Z,13.62
2023-05-05T06:13:03.902Z,13.67
2023-05-05T06:15:34.486Z,13.90
2023-05-05T06:18:04.197Z,13.97
2023-05-05T06:20:32.083Z,14.10
2023-05-05T06:23:07.313Z,14.27
2023-05-05T06:25:38.637Z,14.31
2023-05-05T06:28:06.200Z,14.34
2023-05-05T06:30:33.904Z,14.44
2023-05-05T06:33:04.813Z,14.58
2023-05-05T06:35:32.890Z,14.92
2023-05-05T06:38:01.063Z,17.57
2023-05-05T06:40:29.273Z,19.44
2023-05-05T06:42:57.073Z,21.07
2023-05-05T06:45:31.648Z,22.15
2023-05-05T06:48:01.506Z,23.37
2023-05-05T06:50:29.790Z,23.65
2023-05-05T06:52:57.629Z,23.14
2023-05-05T06:55:25.581Z,22.11
2023-05-05T06:57:52.980Z,22.35
2023-05-05T07:00:22.401Z,22.71
2023-05-05T07:02:52.374Z,22.82
2023-05-05T07:05:20.180Z,23.28
2023-05-05T07:07:57.493Z,24.20
2023-05-05T07:10:24.969Z,24.53
2023-05-05T07:12:52.684Z,25.82
2023-05-05T07:15:28.534Z,25.41
2023-05-05T07:17:58.073Z,25.04
2023-05-05T07:20:25.990Z,25.59
2023-05-05T07:22:53.420Z,26.25
2023-05-05T07:25:21.375Z,26.56
2023-05-05T07:27:49.247Z,25.92
2023-05-05T07:30:18.809Z,25.17
2023-05-05T07:32:48.058Z,24.08
2023-05-05T07:35:15.680Z,24.39
2023-05-05T07:37:44.001Z,24.20
2023-05-05T07:40:11.950Z,23.75
2023-05-05T07:42:39.565Z,23.58
2023-05-05T07:45:07.519Z,24.71
2023-05-05T07:47:38.359Z,23.85
2023-05-05T07:50:06.599Z,23.19
2023-05-05T07:52:45.272Z,24.56
2023-05-05T07:55:15.762Z,25.65
2023-05-05T07:57:43.411Z,26.55
2023-05-05T08:00:19.371Z,26.01
2023-05-05T08:02:48.099Z,26.34
2023-05-05T08:05:16.610Z,26.73
2023-05-05T08:07:44.394Z,26.49
2023-05-05T08:10:12.523Z,25.92
2023-05-05T08:12:41.092Z,26.65
2023-05-05T08:15:18.433Z,26.47
2023-05-05T08:17:49.954Z,25.89
2023-05-05T08:20:18.746Z,26.30
2023-05-05T08:22:46.609Z,26.06
2023-05-05T08:25:14.317Z,25.77
2023-05-05T08:27:45.187Z,26.95
2023-05-05T08:30:17.624Z,26.93
2023-05-05T08:32:45.180Z,25.72
2023-05-05T08:35:13.137Z,25.19
2023-05-05T08:37:46.372Z,24.56
2023-05-05T08:40:19.485Z,24.64
2023-05-05T08:42:47.635Z,24.35
2023-05-05T08:45:16.213Z,24.56
2023-05-05T08:47:45.219Z,24.32
2023-05-05T08:50:12.594Z,23.97
2023-05-05T08:52:42.019Z,22.59
2023-05-05T08:55:12.758Z,22.00
2023-05-05T08:57:51.768Z,21.76
2023-05-05T09:00:20.327Z,21.21
2023-05-05T09:02:54.100Z,20.83
2023-05-05T09:05:26.000Z,20.73
2023-05-05T09:08:25.993Z,20.91
2023-05-05T09:11:03.602Z,20.94
2023-05-05T09:13:31.975Z,20.92
2023-05-05T09:15:59.826Z,20.70
2023-05-05T09:18:27.578Z,20.76
2023-05-05T09:20:59.567Z,20.68
2023-05-05T09:23:27.127Z,21.01
2023-05-05T09:26:09.380Z,21.21
2023-05-05T09:28:37.497Z,21.26
2023-05-05T09:31:17.632Z,21.39
2023-05-05T09:33:45.486Z,21.34
2023-05-05T09:36:13.071Z,21.62
2023-05-05T09:38:47.135Z,21.84
2023-05-05T09:41:15.739Z,21.75
2023-05-05T09:43:51.246Z,21.59
2023-05-05T09:46:21.853Z,21.50
2023-05-05T09:48:49.762Z,21.70
2023-05-05T09:51:17.444Z,22.04
2023-05-05T09:53:47.505Z,21.98
2023-05-05T09:56:15.004Z,22.07
2023-05-05T09:58:42.839Z,22.14
2023-05-05T10:01:21.878Z,22.31
2023-05-05T10:03:52.648Z,22.41
2023-05-05T10:06:20.048Z,22.56
2023-05-05T10:08:47.482Z,22.40
2023-05-05T10:11:14.851Z,22.33
2023-05-05T10:13:43.167Z,22.47
2023-05-05T10:16:10.464Z,22.54
2023-05-05T10:18:38.116Z,22.41
2023-05-05T10:21:06.087Z,22.66
2023-05-05T10:23:40.787Z,22.71
2023-05-05T10:26:10.560Z,22.59
2023-05-05T10:28:48.708Z,22.86
2023-05-05T10:32:00.682Z,23.34
2023-05-05T10:34:45.402Z,23.37
2023-05-05T10:37:16.448Z,23.47
2023-05-05T10:39:45.297Z,23.44
2023-05-05T10:42:13.862Z,23.57
2023-05-05T10:44:41.441Z,23.41
2023-05-05T10:47:09.177Z,23.68
2023-05-05T10:50:02.146Z,23.88
2023-05-05T10:52:42.487Z,23.85
2023-05-05T10:55:44.799Z,23.72
2023-05-05T10:58:59.012Z,23.57
2023-05-05T11:01:33.113Z,23.78
2023-05-05T11:04:23.162Z,23.75
2023-05-05T11:07:10.476Z,23.72
2023-05-05T11:10:04.075Z,24.02
2023-05-05T11:12:53.350Z,23.92
2023-05-05T11:15:30.419Z,23.99
2023-05-05T11:17:58.618Z,23.98
2023-05-05T11:20:40.984Z,24.05
2023-05-05T11:23:08.406Z,23.85
2023-05-05T11:25:40.875Z,24.23
2023-05-05T11:28:16.536Z,24.35
2023-05-05T11:30:59.481Z,24.19
2023-05-05T11:33:31.779Z,24.56
2023-05-05T11:36:06.016Z,24.56
2023-05-05T11:38:39.684Z,24.15
2023-05-05T11:41:23.634Z,24.05
2023-05-05T11:43:51.009Z,24.06
2023-05-05T11:46:18.401Z,24.43
2023-05-05T11:48:49.550Z,24.35
2023-05-05T11:51:17.986Z,24.09
2023-05-05T11:53:46.386Z,24.13
2023-05-05T11:56:19.119Z,24.09
2023-05-05T11:58:47.229Z,24.09
2023-05-05T12:01:14.793Z,24.22
2023-05-05T12:03:42.354Z,24.36
2023-05-05T12:06:09.974Z,24.49
2023-05-05T12:08:37.998Z,24.66
2023-05-05T12:11:07.685Z,24.36
2023-05-05T12:13:35.023Z,24.53
2023-05-05T12:16:12.943Z,24.66
2023-05-05T12:18:40.691Z,24.91
2023-05-05T12:21:18.094Z,24.74
2023-05-05T12:23:45.558Z,24.53
2023-05-05T12:26:31.463Z,24.61
2023-05-05T12:28:59.811Z,24.57
2023-05-05T12:31:37.113Z,24.61
2023-05-05T12:34:05.150Z,24.18
2023-05-05T12:36:38.902Z,24.41
2023-05-05T12:39:06.418Z,24.47
2023-05-05T12:41:34.024Z,24.77
2023-05-05T12:44:03.063Z,24.83
2023-05-05T12:46:31.912Z,24.67
2023-05-05T12:49:05.376Z,24.64
2023-05-05T12:51:33.356Z,24.47
2023-05-05T12:54:08.167Z,24.60
2023-05-05T12:56:43.682Z,24.56
2023-05-05T12:59:23.353Z,24.68
2023-05-05T13:01:58.128Z,24.71
2023-05-05T13:04:26.360Z,24.86
2023-05-05T13:07:11.646Z,25.18
2023-05-05T13:09:39.158Z,24.86
2023-05-05T13:12:08.520Z,24.74
2023-05-05T13:14:36.464Z,24.35
2023-05-05T13:17:03.886Z,24.53
2023-05-05T13:19:31.254Z,24.84
2023-05-05T13:21:58.807Z,25.17
2023-05-05T13:24:38.605Z,25.07
2023-05-05T13:27:10.003Z,25.12
2023-05-05T13:29:37.336Z,25.05
2023-05-05T13:32:04.800Z,25.45
2023-05-05T13:34:32.043Z,25.65
2023-05-05T13:36:59.435Z,25.28
2023-05-05T13:39:26.729Z,25.32
2023-05-05T13:41:54.137Z,25.35
2023-05-05T13:44:22.073Z,25.52
2023-05-05T13:46:49.403Z,25.48
2023-05-05T13:49:16.937Z,25.26
2023-05-05T13:51:45.244Z,24.94
2023-05-05T13:54:12.611Z,24.94
2023-05-05T13:56:39.958Z,25.03
2023-05-05T13:59:07.202Z,24.61
2023-05-05T14:01:34.744Z,24.44
2023-05-05T14:04:05.176Z,24.36
2023-05-05T14:06:33.776Z,24.32
2023-05-05T14:09:01.500Z,24.49
2023-05-05T14:11:28.996Z,24.30
2023-05-05T14:13:56.729Z,24.52
2023-05-05T14:16:24.015Z,24.59
2023-05-05T14:18:51.350Z,24.47
2023-05-05T14:21:18.696Z,24.55
2023-05-05T14:23:45.961Z,24.46
2023-05-05T14:26:13.307Z,24.26
2023-05-05T14:28:40.726Z,24.29
2023-05-05T14:31:08.004Z,24.23
2023-05-05T14:33:35.216Z,24.36
2023-05-05T14:36:02.526Z,24.39
2023-05-05T14:38:29.994Z,24.77
2023-05-05T14:40:57.338Z,24.81
2023-05-05T14:43:24.566Z,24.57
2023-05-05T14:45:52.696Z,24.39
2023-05-05T14:48:22.395Z,24.09
2023-05-05T14:50:50.124Z,24.22
2023-05-05T14:53:19.120Z,24.25
2023-05-05T14:55:46.505Z,24.26
2023-05-05T14:58:13.775Z,24.36
2023-05-05T15:00:41.105Z,24.44
2023-05-05T15:03:08.454Z,24.50
2023-05-05T15:05:35.813Z,24.22
2023-05-05T15:08:02.998Z,23.99
2023-05-05T15:10:30.342Z,23.89
2023-05-05T15:12:57.637Z,23.97
2023-05-05T15:15:24.924Z,23.92
2023-05-05T15:17:52.531Z,23.82
2023-05-05T15:20:19.887Z,23.88
2023-05-05T15:22:49.021Z,23.79
2023-05-05T15:25:18.807Z,23.85
2023-05-05T15:27:46.113Z,23.92
2023-05-05T15:30:14.233Z,23.78
2023-05-05T15:32:41.728Z,23.79
2023-05-05T15:35:09.247Z,23.61
2023-05-05T15:37:37.877Z,23.65
2023-05-05T15:40:05.881Z,23.55
2023-05-05T15:42:33.866Z,23.53
2023-05-05T15:45:01.140Z,23.64
2023-05-05T15:47:28.529Z,23.65
2023-05-05T15:49:55.920Z,23.49
2023-05-05T15:52:23.171Z,23.44
2023-05-05T15:54:50.446Z,23.55
2023-05-05T15:57:17.656Z,23.54
2023-05-05T15:59:45.017Z,23.57
2023-05-05T16:02:12.517Z,23.58
2023-05-05T16:04:43.380Z,23.54
2023-05-05T16:07:11.400Z,23.53
2023-05-05T16:09:40.582Z,23.53
2023-05-05T16:12:08.049Z,23.34
2023-05-05T16:14:35.417Z,23.30
2023-05-05T16:17:02.878Z,23.40
2023-05-05T16:19:31.249Z,23.28
2023-05-05T16:21:58.538Z,23.20
2023-05-05T16:24:25.743Z,23.17
2023-05-05T16:26:53.144Z,23.07
2023-05-05T16:29:20.755Z,22.93
2023-05-05T16:31:48.112Z,22.99
2023-05-05T16:34:16.525Z,23.07
2023-05-05T16:36:44.573Z,23.09
2023-05-05T16:39:12.050Z,22.89
2023-05-05T16:41:39.916Z,22.75
2023-05-05T16:44:07.210Z,22.51
2023-05-05T16:46:37.714Z,22.49
2023-05-05T16:49:05.265Z,22.47
2023-05-05T16:51:32.484Z,22.47
2023-05-05T16:53:59.837Z,22.40
2023-05-05T16:56:27.060Z,22.31
2023-05-05T16:58:54.402Z,22.28
2023-05-05T17:01:21.663Z,22.30
2023-05-05T17:03:48.984Z,22.33
2023-05-05T17:06:16.256Z,22.27
2023-05-05T17:08:43.708Z,22.17
2023-05-05T17:11:11.832Z,22.11
2023-05-05T17:13:39.265Z,21.96
2023-05-05T17:16:06.756Z,21.87
2023-05-05T17:18:34.286Z,21.96
2023-05-05T17:21:01.550Z,21.80
2023-05-05T17:23:28.848Z,21.79
2023-05-05T17:25:56.110Z,21.79
2023-05-05T17:28:23.438Z,21.69
2023-05-05T17:30:50.660Z,21.52
2023-05-05T17:33:21.432Z,21.56
2023-05-05T17:35:48.721Z,21.57
2023-05-05T17:38:15.958Z,21.56
2023-05-05T17:40:43.421Z,21.50
2023-05-05T17:43:10.703Z,21.42
2023-05-05T17:45:38.072Z,21.34
2023-05-05T17:48:05.699Z,21.19
2023-05-05T17:50:33.039Z,21.11
2023-05-05T17:53:00.248Z,20.95
2023-05-05T17:55:37.831Z,20.99
2023-05-05T17:58:05.245Z,20.97
2023-05-05T18:00:32.467Z,20.91
2023-05-05T18:03:01.086Z,20.76
2023-05-05T18:05:28.578Z,20.87
2023-05-05T18:07:55.902Z,20.83
2023-05-05T18:10:23.435Z,20.84
2023-05-05T18:12:50.859Z,20.66
2023-05-05T18:15:18.054Z,20.49
2023-05-05T18:17:45.434Z,20.57
2023-05-05T18:20:12.780Z,20.46
2023-05-05T18:22:40.143Z,20.39
2023-05-05T18:25:08.344Z,20.41
2023-05-05T18:27:36.150Z,20.41
2023-05-05T18:30:04.905Z,20.32
2023-05-05T18:32:32.635Z,20.34
2023-05-05T18:34:59.810Z,20.29
2023-05-05T18:37:28.020Z,20.26
2023-05-05T18:39:55.232Z,20.25
2023-05-05T18:42:22.678Z,20.25
2023-05-05T18:44:50.074Z,20.23
2023-05-05T18:47:17.440Z,20.12
2023-05-05T18:49:45.494Z,20.13
2023-05-05T18:52:13.601Z,20.06
2023-05-05T18:54:41.053Z,19.89
2023-05-05T18:57:08.391Z,19.85
2023-05-05T18:59:35.597Z,19.81
2023-05-05T19:02:03.003Z,19.58
2023-05-05T19:04:31.746Z,19.61
2023-05-05T19:06:59.691Z,19.58
2023-05-05T19:09:27.121Z,19.55
2023-05-05T19:11:54.411Z,19.55
2023-05-05T19:14:22.232Z,19.47
2023-05-05T19:16:49.595Z,19.44
2023-05-05T19:19:17.194Z,19.28
2023-05-05T19:21:44.643Z,19.10
2023-05-05T19:24:11.890Z,19.04
2023-05-05T19:26:39.217Z,19.00
2023-05-05T19:29:06.532Z,19.09
2023-05-05T19:31:33.920Z,19.10
2023-05-05T19:34:02.078Z,19.03
2023-05-05T19:36:32.754Z,18.90
2023-05-05T19:39:01.843Z,19.00
2023-05-05T19:41:30.583Z,18.90
2023-05-05T19:43:57.952Z,18.82
2023-05-05T19:46:26.528Z,18.79
2023-05-05T19:48:54.015Z,18.76
2023-05-05T19:51:21.389Z,18.79
2023-05-05T19:53:48.751Z,18.82
2023-05-05T19:56:17.207Z,18.85
2023-05-05T19:58:59.035Z,18.90
2023-05-05T20:01:27.241Z,18.83
2023-05-05T20:03:55.571Z,18.75
2023-05-05T20:06:23.071Z,18.66
2023-05-05T20:08:50.261Z,18.68
2023-05-05T20:11:17.745Z,18.58
2023-05-05T20:13:45.155Z,18.55
2023-05-05T20:16:12.660Z,18.44
2023-05-05T20:18:40.382Z,18.40
2023-05-05T20:21:07.744Z,18.25
2023-05-05T20:23:35.118Z,18.25
2023-05-05T20:26:02.613Z,18.24
2023-05-05T20:28:31.673Z,18.27
2023-05-05T20:31:00.689Z,18.34
2023-05-05T20:33:28.599Z,18.34
2023-05-05T20:35:55.959Z,18.18
2023-05-05T20:38:23.203Z,18.08
2023-05-05T20:40:51.050Z,18.10
2023-05-05T20:43:19.013Z,18.05
2023-05-05T20:45:46.658Z,18.05
2023-05-05T20:48:13.941Z,18.04
2023-05-05T20:50:41.532Z,17.76
2023-05-05T20:53:09.057Z,17.59
2023-05-05T20:55:36.334Z,17.73
2023-05-05T20:58:04.757Z,17.72
2023-05-05T21:00:32.104Z,17.76
2023-05-05T21:02:59.504Z,17.79
2023-05-05T21:05:26.978Z,17.69
2023-05-05T21:07:54.678Z,17.63
2023-05-05T21:10:22.076Z,17.61
2023-05-05T21:12:49.312Z,17.67
2023-05-05T21:15:16.876Z,17.76
2023-05-05T21:17:44.245Z,17.61
2023-05-05T21:20:12.436Z,17.65
2023-05-05T21:22:40.010Z,17.65
2023-05-05T21:25:18.006Z,17.66
2023-05-05T21:27:46.248Z,17.56
2023-05-05T21:30:13.772Z,17.52
2023-05-05T21:32:41.474Z,17.43
2023-05-05T21:35:09.273Z,17.40
2023-05-05T21:37:37.703Z,17.38
2023-05-05T21:40:07.262Z,17.40
2023-05-05T21:42:34.576Z,17.36
2023-05-05T21:45:01.793Z,17.31
2023-05-05T21:47:29.113Z,17.28
2023-05-05T21:49:57.562Z,17.29
2023-05-05T21:52:24.898Z,17.21
2023-05-05T21:54:52.199Z,17.19
2023-05-05T21:57:19.480Z,17.08
2023-05-05T21:59:46.784Z,17.10
2023-05-05T22:02:14.148Z,17.08
2023-05-05T22:04:41.388Z,16.98
2023-05-05T22:07:08.731Z,16.98
2023-05-05T22:09:35.919Z,17.00
2023-05-05T22:12:03.341Z,16.97
2023-05-05T22:14:30.706Z,16.89
2023-05-05T22:16:58.067Z,16.87
2023-05-05T22:19:25.551Z,16.78
2023-05-05T22:21:53.457Z,16.80
2023-05-05T22:24:20.745Z,16.83
2023-05-05T22:26:48.078Z,16.64
2023-05-05T22:29:15.442Z,16.55
2023-05-05T22:31:42.820Z,16.42
2023-05-05T22:34:10.058Z,16.34
2023-05-05T22:36:37.384Z,16.29
2023-05-05T22:39:04.638Z,16.16
2023-05-05T22:41:31.905Z,16.13
2023-05-05T22:43:59.296Z,16.10
2023-05-05T22:46:26.574Z,16.10
2023-05-05T22:48:54.235Z,16.09
2023-05-05T22:51:21.673Z,16.13
2023-05-05T22:53:48.975Z,16.22
2023-05-05T22:56:16.734Z,16.25
2023-05-05T22:58:44.017Z,16.08
2023-05-05T23:01:11.496Z,15.98
2023-05-05T23:03:38.716Z,16.06
2023-05-05T23:06:06.154Z,16.19
2023-05-05T23:08:33.437Z,16.04
2023-05-05T23:11:00.725Z,15.97
2023-05-05T23:13:27.976Z,15.99
2023-05-05T23:15:55.391Z,15.97
2023-05-05T23:18:22.653Z,15.97
2023-05-05T23:20:49.895Z,15.99
2023-05-05T23:23:17.105Z,15.91
2023-05-05T23:25:44.966Z,15.89
2023-05-05T23:28:12.152Z,15.91
2023-05-05T23:30:39.500Z,15.99
2023-05-05T23:33:06.751Z,16.09
2023-05-05T23:35:34.270Z,16.02
2023-05-05T23:38:01.512Z,16.10
2023-05-05T23:40:28.812Z,15.98
2023-05-05T23:42:56.099Z,15.84
2023-05-05T23:45:23.422Z,15.91
2023-05-05T23:47:50.776Z,15.99
2023-05-05T23:50:18.109Z,15.88
2023-05-05T23:52:45.301Z,15.92
2023-05-05T23:55:14.563Z,15.88
2023-05-05T23:57:41.766Z,15.82
